createdAt,value
2022-09-13T00:01:19.456Z,99213.42
2022-09-13T00:10:53.496Z,99195.27
2022-09-13T00:20:29.588Z,99176.19
2022-09-13T00:30:02.248Z,99175.30
2022-09-13T00:39:36.054Z,99175.48
2022-09-13T00:49:11.346Z,99162.68
2022-09-13T00:58:44.674Z,99148.60
2022-09-13T01:08:18.418Z,99167.80
2022-09-13T01:17:54.514Z,99178.69
2022-09-13T01:27:27.162Z,99162.36
2022-09-13T01:37:01.571Z,99121.03
2022-09-13T01:46:35.983Z,99154.05
2022-09-13T01:56:10.278Z,99191.80
2022-09-13T02:05:46.092Z,99179.13
2022-09-13T02:15:18.781Z,99186.67
2022-09-13T02:24:53.126Z,99187.06
2022-09-13T02:34:29.291Z,99187.30
2022-09-13T02:44:02.333Z,99196.59
2022-09-13T02:53:37.017Z,99178.54
2022-09-13T03:03:12.799Z,99177.73
2022-09-13T03:12:47.315Z,99160.08
2022-09-13T03:22:20.020Z,99273.95
2022-09-13T03:31:54.538Z,99093.19
2022-09-13T03:41:29.299Z,99101.18
2022-09-13T03:51:04.951Z,99133.24
2022-09-13T04:00:38.363Z,99139.36
2022-09-13T04:10:13.801Z,99128.03
2022-09-13T04:19:47.440Z,99114.06
2022-09-13T04:29:21.996Z,99115.46
2022-09-13T04:38:56.281Z,99100.70
2022-09-13T04:48:30.455Z,99084.30
2022-09-13T04:58:05.329Z,99070.94
2022-09-13T05:07:41.532Z,99097.38
2022-09-13T05:17:14.656Z,99137.06
2022-09-13T05:26:49.481Z,99198.92
2022-09-13T05:36:24.026Z,99226.08
2022-09-13T05:46:00.069Z,99240.86
2022-09-13T05:55:34.672Z,99261.33
2022-09-13T06:05:09.057Z,99304.86
2022-09-13T06:14:43.635Z,99370.24
2022-09-13T06:24:16.316Z,99435.73
2022-09-13T06:33:52.810Z,99516.55
2022-09-13T06:43:27.687Z,99518.78
2022-09-13T06:53:00.677Z,99501.36
2022-09-13T07:02:36.701Z,99494.41
2022-09-13T07:12:09.239Z,99511.49
2022-09-13T07:21:43.720Z,99512.08
2022-09-13T07:31:18.440Z,99564.73
2022-09-13T07:40:54.687Z,99623.95
2022-09-13T07:50:27.902Z,99703.80
2022-09-13T07:51:33.369Z,99704.72
2022-09-13T08:01:04.324Z,99768.21
2022-09-13T08:02:06.894Z,99774.65
2022-09-13T08:03:10.879Z,99796.89
2022-09-13T08:04:13.156Z,99820.59
2022-09-13T08:05:15.645Z,99846.55
2022-09-13T08:06:18.102Z,99860.19
2022-09-13T08:07:20.575Z,99872.14
2022-09-13T08:08:24.687Z,99871.31
2022-09-13T08:09:27.041Z,99890.48
2022-09-13T08:10:31.162Z,99906.94
2022-09-13T08:20:04.158Z,99891.13
2022-09-13T08:21:06.557Z,99906.74
2022-09-13T08:22:08.920Z,99921.45
2022-09-13T08:23:11.434Z,99934.48
2022-09-13T08:24:13.896Z,99938.53
2022-09-13T08:25:16.362Z,99936.88
2022-09-13T08:26:20.405Z,99931.14
2022-09-13T08:27:22.764Z,99940.16
2022-09-13T08:36:55.715Z,99890.16
2022-09-13T08:37:58.238Z,99890.42
2022-09-13T08:39:02.304Z,99884.78
2022-09-13T08:40:04.837Z,99901.39
2022-09-13T08:41:07.187Z,99904.01
2022-09-13T08:42:11.322Z,99903.91
2022-09-13T08:43:13.741Z,99891.02
2022-09-13T08:44:16.199Z,99893.30
2022-09-13T08:45:18.657Z,99875.28
2022-09-13T08:46:21.201Z,99897.69
2022-09-13T08:47:25.265Z,99899.92
2022-09-13T08:48:29.174Z,99911.03
2022-09-13T08:49:33.121Z,99910.20
2022-09-13T08:50:35.477Z,99917.65
2022-09-13T08:51:39.559Z,99909.45
2022-09-13T08:52:41.835Z,99894.70
2022-09-13T08:53:46.004Z,99902.02
2022-09-13T08:54:48.293Z,99903.27
2022-09-13T08:55:50.814Z,99904.83
2022-09-13T08:56:53.299Z,99897.36
2022-09-13T08:57:55.723Z,99896.63
2022-09-13T08:58:58.232Z,99892.47
2022-09-13T09:00:02.230Z,99876.45
2022-09-13T09:01:06.198Z,99873.34
2022-09-13T09:02:09.551Z,99883.52
2022-09-13T09:03:11.895Z,99899.20
2022-09-13T09:04:14.365Z,99912.16
2022-09-13T09:05:16.834Z,99904.02
2022-09-13T09:06:19.335Z,99881.59
2022-09-13T09:07:21.893Z,99863.14
2022-09-13T09:08:25.927Z,99859.02
2022-09-13T09:09:29.883Z,99863.64
2022-09-13T09:10:33.226Z,99883.95
2022-09-13T09:11:35.581Z,99895.14
2022-09-13T09:12:38.070Z,99897.64
2022-09-13T09:13:42.188Z,99910.19
2022-09-13T09:14:46.105Z,99920.80
2022-09-13T09:15:48.483Z,99932.67
2022-09-13T09:16:50.903Z,99938.63
2022-09-13T09:17:54.339Z,99953.10
2022-09-13T09:18:58.343Z,99972.82
2022-09-13T09:20:00.709Z,99993.96
2022-09-13T09:21:04.717Z,100006.70
2022-09-13T09:22:08.695Z,100012.36
2022-09-13T09:23:11.032Z,100008.55
2022-09-13T09:24:13.528Z,100004.43
2022-09-13T09:25:17.579Z,100006.24
2022-09-13T09:26:21.509Z,99998.33
2022-09-13T09:27:23.962Z,99988.31
2022-09-13T09:28:28.046Z,99994.33
2022-09-13T09:29:30.393Z,100011.69
2022-09-13T09:30:34.500Z,99982.45
2022-09-13T09:31:36.826Z,99974.25
2022-09-13T09:32:40.868Z,99978.69
2022-09-13T09:33:43.243Z,99975.44
2022-09-13T09:34:47.261Z,99982.55
2022-09-13T09:35:49.642Z,100002.59
2022-09-13T09:36:52.142Z,100003.49
2022-09-13T09:37:56.235Z,100003.26
2022-09-13T09:38:58.564Z,100007.64
2022-09-13T09:40:02.691Z,100018.55
2022-09-13T09:41:04.925Z,99999.30
2022-09-13T09:42:07.404Z,99965.23
2022-09-13T09:43:09.837Z,99978.92
2022-09-13T09:44:13.899Z,99987.34
2022-09-13T09:45:17.885Z,99957.50
2022-09-13T09:46:22.020Z,99974.00
2022-09-13T09:47:29.180Z,99944.63
2022-09-13T09:48:28.215Z,99966.30
2022-09-13T09:49:32.248Z,99937.80
2022-09-13T09:50:34.648Z,99935.60
2022-09-13T09:51:37.204Z,99911.09
2022-09-13T09:52:39.612Z,99909.48
2022-09-13T09:53:43.717Z,99923.31
2022-09-13T09:54:46.033Z,99953.88
2022-09-13T09:55:48.443Z,99938.42
2022-09-13T09:56:50.934Z,99944.48
2022-09-13T09:57:53.493Z,99989.21
2022-09-13T09:58:56.023Z,99992.33
2022-09-13T09:59:58.375Z,99999.83
2022-09-13T10:01:02.533Z,99974.19
2022-09-13T10:02:06.504Z,99999.71
2022-09-13T10:03:10.379Z,100024.61
2022-09-13T10:04:14.302Z,100002.45
2022-09-13T10:05:16.631Z,100000.09
2022-09-13T10:06:21.667Z,100009.16
2022-09-13T10:07:25.584Z,100008.34
2022-09-13T10:08:28.024Z,99986.97
2022-09-13T10:09:30.440Z,99984.81
2022-09-13T10:10:34.527Z,99998.52
2022-09-13T10:11:36.892Z,100012.30
2022-09-13T10:12:39.414Z,100005.58
2022-09-13T10:13:42.047Z,100000.73
2022-09-13T10:14:44.357Z,100004.89
2022-09-13T10:15:46.826Z,99990.47
2022-09-13T10:16:49.331Z,99968.94
2022-09-13T10:17:51.780Z,99970.88
2022-09-13T10:18:54.559Z,99981.80
2022-09-13T10:19:56.868Z,100000.67
2022-09-13T10:21:00.893Z,100024.91
2022-09-13T10:22:03.250Z,100006.91
2022-09-13T10:23:05.683Z,100015.31
2022-09-13T10:24:09.853Z,100010.48
2022-09-13T10:25:12.095Z,100005.44
2022-09-13T10:26:14.566Z,100001.27
2022-09-13T10:27:17.078Z,100012.13
2022-09-13T10:28:21.145Z,100012.56
2022-09-13T10:29:23.478Z,100015.95
2022-09-13T10:30:26.012Z,100027.46
2022-09-13T10:31:28.415Z,100025.41
2022-09-13T10:32:30.950Z,100043.75
2022-09-13T10:33:35.038Z,100047.98
2022-09-13T10:34:37.434Z,100055.05
2022-09-13T10:35:41.561Z,100072.80
2022-09-13T10:36:52.849Z,100079.48
2022-09-13T10:37:46.346Z,100092.45
2022-09-13T10:38:50.579Z,100119.41
2022-09-13T10:39:52.812Z,100139.42
2022-09-13T10:40:57.060Z,100128.81
2022-09-13T10:41:59.401Z,100137.27
2022-09-13T10:43:03.479Z,100130.55
2022-09-13T10:44:09.691Z,100155.30
2022-09-13T10:45:11.375Z,100182.20
2022-09-13T10:46:15.438Z,100216.52
2022-09-13T10:47:17.659Z,100226.30
2022-09-13T10:48:20.189Z,100289.56
2022-09-13T10:49:22.619Z,100314.75
2022-09-13T10:58:57.271Z,100186.16
2022-09-13T10:59:59.851Z,100200.80
2022-09-13T11:01:02.338Z,100209.16
2022-09-13T11:02:06.419Z,100229.97
2022-09-13T11:03:08.782Z,100237.05
2022-09-13T11:04:11.341Z,100237.73
2022-09-13T11:05:13.785Z,100262.67
2022-09-13T11:06:16.254Z,100277.36
2022-09-13T11:07:18.777Z,100279.14
2022-09-13T11:08:23.040Z,100302.30
2022-09-13T11:09:25.363Z,100310.39
2022-09-13T11:10:27.897Z,100304.41
2022-09-13T11:11:30.397Z,100307.75
2022-09-13T11:12:34.461Z,100301.17
2022-09-13T11:13:40.851Z,99182.59
2022-09-13T11:14:42.382Z,99179.08
2022-09-13T11:15:44.719Z,99181.94
2022-09-13T11:16:47.240Z,99178.63
2022-09-13T11:17:51.292Z,99179.38
2022-09-13T11:18:53.687Z,99178.89
2022-09-13T11:19:57.159Z,99189.23
2022-09-13T11:20:58.583Z,99188.92
2022-09-13T11:22:01.094Z,99180.20
2022-09-13T11:23:05.220Z,99183.84
2022-09-13T11:24:09.136Z,99181.91
2022-09-13T11:25:14.114Z,99180.72
2022-09-13T11:26:16.459Z,99177.46
2022-09-13T11:27:18.919Z,99171.26
2022-09-13T11:28:21.392Z,99171.55
2022-09-13T11:29:23.900Z,99165.67
2022-09-13T11:30:29.783Z,99160.40
2022-09-13T11:31:30.465Z,99158.52
2022-09-13T11:32:32.754Z,99152.49
2022-09-13T11:33:35.273Z,99153.44
2022-09-13T11:34:39.386Z,99148.31
2022-09-13T11:35:41.755Z,99144.66
2022-09-13T11:36:44.189Z,99140.23
2022-09-13T11:37:48.315Z,99141.60
2022-09-13T11:38:50.637Z,99138.47
2022-09-13T11:39:53.178Z,99139.32
2022-09-13T11:40:57.205Z,99135.17
2022-09-13T11:41:59.597Z,99132.38
2022-09-13T11:43:03.653Z,99129.47
2022-09-13T11:44:05.990Z,99129.64
2022-09-13T11:45:08.487Z,99132.56
2022-09-13T11:46:10.951Z,99131.55
2022-09-13T11:47:13.462Z,99134.55
2022-09-13T11:48:17.547Z,99135.70
2022-09-13T11:49:21.576Z,99133.53
2022-09-13T11:50:23.933Z,99134.30
2022-09-13T11:51:27.984Z,99128.52
2022-09-13T11:52:30.416Z,99122.86
2022-09-13T11:53:33.879Z,99122.89
2022-09-13T11:54:36.344Z,99123.78
2022-09-13T11:55:38.844Z,99121.95
2022-09-13T11:56:41.284Z,99125.63
2022-09-13T11:57:45.336Z,99117.09
2022-09-13T11:58:47.686Z,99117.63
2022-09-13T11:59:50.179Z,99113.56
2022-09-13T12:00:54.308Z,99113.89
2022-09-13T12:01:56.747Z,99117.40
2022-09-13T12:02:59.274Z,99113.25
2022-09-13T12:04:01.676Z,99114.38
2022-09-13T12:05:21.363Z,99110.33
2022-09-13T12:06:08.148Z,99108.59
2022-09-13T12:07:10.640Z,99104.80
2022-09-13T12:08:13.108Z,99101.50
2022-09-13T12:09:17.192Z,99100.92
2022-09-13T12:10:19.537Z,99105.55
2022-09-13T12:11:22.074Z,99105.50
2022-09-13T12:12:24.541Z,99112.49
2022-09-13T12:13:28.614Z,99109.04
2022-09-13T12:14:31.021Z,99107.16
2022-09-13T12:15:35.107Z,99109.20
2022-09-13T12:16:39.093Z,99109.47
2022-09-13T12:17:41.392Z,99112.47
2022-09-13T12:18:43.948Z,99113.67
2022-09-13T12:19:46.398Z,99114.69
2022-09-13T12:20:48.887Z,99112.57
2022-09-13T12:21:51.365Z,99112.74
2022-09-13T12:31:26.032Z,99119.22
2022-09-13T12:32:28.477Z,99110.45
2022-09-13T12:33:31.083Z,99114.42
2022-09-13T12:34:33.613Z,99113.64
2022-09-13T12:35:36.103Z,99115.48
2022-09-13T12:36:40.211Z,99115.45
2022-09-13T12:37:42.571Z,99113.47
2022-09-13T12:38:46.665Z,99111.45
2022-09-13T12:39:50.679Z,99111.70
2022-09-13T12:40:52.966Z,99109.91
2022-09-13T12:41:55.482Z,99104.75
2022-09-13T12:42:59.559Z,99101.95
2022-09-13T12:44:01.942Z,99101.03
2022-09-13T12:45:04.408Z,99101.22
2022-09-13T12:46:06.969Z,99104.91
2022-09-13T12:47:09.413Z,99102.00
2022-09-13T12:48:11.937Z,99106.21
2022-09-13T12:49:15.979Z,99100.25
2022-09-13T12:51:23.947Z,99102.52
2022-09-13T12:52:27.886Z,99101.07
2022-09-13T12:53:31.834Z,99098.55
2022-09-13T12:54:34.188Z,99103.34
2022-09-13T12:55:47.343Z,99105.41
2022-09-13T12:56:40.585Z,99104.80
2022-09-13T12:57:44.774Z,99111.66
2022-09-13T13:07:17.406Z,99110.53
2022-09-13T13:08:21.352Z,99107.27
2022-09-13T13:09:28.735Z,99110.45
2022-09-13T13:10:27.696Z,99105.00
2022-09-13T13:11:30.148Z,99105.69
2022-09-13T13:12:32.653Z,99099.56
2022-09-13T13:13:36.792Z,99097.68
2022-09-13T13:14:39.113Z,99094.04
2022-09-13T13:15:46.591Z,99093.41
2022-09-13T13:16:46.653Z,99092.83
2022-09-13T13:17:50.578Z,99090.20
2022-09-13T13:18:52.907Z,99086.52
2022-09-13T13:19:57.017Z,99084.06
2022-09-13T13:21:00.985Z,99079.29
2022-09-13T13:22:03.365Z,99079.29
2022-09-13T13:23:05.816Z,99077.08
2022-09-13T13:24:09.901Z,99073.31
2022-09-13T13:25:13.869Z,99069.80
2022-09-13T13:26:17.777Z,99073.13
2022-09-13T13:27:20.142Z,99072.61
2022-09-13T13:28:22.678Z,99075.35
2022-09-13T13:29:27.700Z,99070.82
2022-09-13T13:30:30.031Z,99063.07
2022-09-13T13:31:32.580Z,99062.99
2022-09-13T13:32:36.571Z,99057.52
2022-09-13T13:33:38.882Z,99058.13
2022-09-13T13:34:43.053Z,99053.88
2022-09-13T13:35:47.085Z,99054.74
2022-09-13T13:36:49.458Z,99054.58
2022-09-13T13:37:51.962Z,99050.31
2022-09-13T13:38:56.058Z,99046.73
2022-09-13T13:39:59.475Z,99048.30
2022-09-13T13:41:00.967Z,99048.45
2022-09-13T13:42:03.508Z,99047.39
2022-09-13T13:43:06.027Z,99049.11
2022-09-13T13:44:08.489Z,99049.03
2022-09-13T13:45:10.986Z,99042.91
2022-09-13T13:46:15.068Z,99044.27
2022-09-13T13:47:17.491Z,99047.18
2022-09-13T13:48:19.955Z,99042.10
2022-09-13T13:49:22.440Z,99043.98
2022-09-13T13:50:24.915Z,99045.02
2022-09-13T13:51:27.416Z,99040.92
2022-09-13T13:52:29.949Z,99046.16
2022-09-13T13:53:32.428Z,99044.52
2022-09-13T13:54:36.540Z,99046.16
2022-09-13T13:55:38.909Z,99042.84
2022-09-13T13:56:41.379Z,99042.77
2022-09-13T13:57:43.939Z,99040.00
2022-09-13T13:58:46.411Z,99045.91
2022-09-13T13:59:50.540Z,99048.55
2022-09-13T14:00:53.067Z,99046.44
2022-09-13T14:01:55.435Z,99047.64
2022-09-13T14:02:57.952Z,99049.78
2022-09-13T14:04:06.083Z,99048.31
2022-09-13T14:05:09.821Z,99052.92
2022-09-13T14:06:12.160Z,99049.34
2022-09-13T14:07:21.558Z,99047.10
2022-09-13T14:08:17.082Z,99046.52
2022-09-13T14:09:19.587Z,99051.11
2022-09-13T14:10:22.066Z,99048.56
2022-09-13T14:11:24.570Z,99049.06
2022-09-13T14:12:27.013Z,99051.30
2022-09-13T14:13:31.079Z,99052.47
2022-09-13T14:14:33.565Z,99052.92
2022-09-13T14:15:36.056Z,99042.31
2022-09-13T14:16:38.578Z,99046.92
2022-09-13T14:17:41.059Z,99045.81
2022-09-13T14:18:45.181Z,99043.00
2022-09-13T14:19:47.546Z,99041.22
2022-09-13T14:20:50.053Z,99040.27
2022-09-13T14:21:54.147Z,99036.02
2022-09-13T14:22:56.508Z,99034.31
2022-09-13T14:24:01.605Z,99034.55
2022-09-13T14:25:03.923Z,99030.03
2022-09-13T14:26:06.414Z,99024.15
2022-09-13T14:27:10.594Z,99020.82
2022-09-13T14:28:13.005Z,99013.81
2022-09-13T14:29:15.450Z,99013.99
2022-09-13T14:30:19.524Z,99013.41
2022-09-13T14:31:22.047Z,99010.57
2022-09-13T14:32:26.879Z,99007.75
2022-09-13T14:33:30.051Z,99006.91
2022-09-13T14:34:32.462Z,99003.66
2022-09-13T14:35:35.011Z,99003.66
2022-09-13T14:36:37.479Z,99005.19
2022-09-13T14:37:41.587Z,99001.27
2022-09-13T14:38:43.939Z,99005.35
2022-09-13T14:39:46.468Z,99005.96
2022-09-13T14:40:50.527Z,99007.84
2022-09-13T14:41:52.868Z,99001.84
2022-09-13T14:42:55.394Z,98993.52
2022-09-13T14:43:59.487Z,98990.00
2022-09-13T14:45:01.834Z,98991.27
2022-09-13T14:46:05.879Z,98989.31
2022-09-13T14:47:08.408Z,98992.14
2022-09-13T14:48:12.390Z,98995.14
2022-09-13T14:49:14.777Z,98989.59
2022-09-13T14:50:17.244Z,98991.63
2022-09-13T14:51:19.752Z,98993.08
2022-09-13T14:52:22.203Z,98991.88
2022-09-13T14:53:24.722Z,98992.55
2022-09-13T14:54:27.209Z,98992.66
2022-09-13T14:55:31.516Z,98990.34
2022-09-13T14:56:33.758Z,98996.06
2022-09-13T14:57:36.289Z,98999.56
2022-09-13T14:58:40.433Z,98996.74
2022-09-13T14:59:42.810Z,98998.02
2022-09-13T15:00:45.349Z,98994.95
2022-09-13T15:01:47.818Z,99002.03
2022-09-13T15:02:50.316Z,99002.86
2022-09-13T15:03:54.438Z,98998.78
2022-09-13T15:04:56.844Z,98995.61
2022-09-13T15:05:59.272Z,98993.20
2022-09-13T15:07:03.343Z,98988.66
2022-09-13T15:08:05.730Z,98988.75
2022-09-13T15:09:08.222Z,98988.14
2022-09-13T15:10:10.706Z,98983.44
2022-09-13T15:11:13.242Z,98985.98
2022-09-13T15:12:17.318Z,98983.84
2022-09-13T15:13:19.717Z,98983.94
2022-09-13T15:14:22.199Z,98980.02
2022-09-13T15:15:25.699Z,98982.22
2022-09-13T15:16:28.128Z,98977.77
2022-09-13T15:17:30.535Z,98979.41
2022-09-13T15:18:36.398Z,98979.56
2022-09-13T15:19:35.536Z,98981.63
2022-09-13T15:20:39.612Z,98974.95
2022-09-13T15:21:41.980Z,98974.52
2022-09-13T15:22:44.406Z,98970.34
2022-09-13T15:23:46.922Z,98971.01
2022-09-13T15:24:50.969Z,98970.00
2022-09-13T15:25:55.038Z,98971.78
2022-09-13T15:26:57.292Z,98970.50
2022-09-13T15:27:59.760Z,98969.29
2022-09-13T15:29:02.306Z,98969.95
2022-09-13T15:30:04.845Z,98967.59
2022-09-13T15:31:07.348Z,98971.33
2022-09-13T15:32:09.783Z,98966.70
2022-09-13T15:33:12.345Z,98967.05
2022-09-13T15:34:14.832Z,98965.16
2022-09-13T15:35:17.327Z,98963.70
2022-09-13T15:36:21.437Z,98958.91
2022-09-13T15:37:23.963Z,98954.80
2022-09-13T15:38:26.425Z,98948.23
2022-09-13T15:39:28.972Z,98946.71
2022-09-13T15:40:31.551Z,98945.04
2022-09-13T15:41:33.906Z,98945.13
2022-09-13T15:42:36.425Z,98946.72
2022-09-13T15:43:40.509Z,98948.09
2022-09-13T15:44:42.839Z,98950.73
2022-09-13T15:45:46.955Z,98959.08
2022-09-13T15:46:49.359Z,98963.44
2022-09-13T15:47:53.360Z,98970.06
2022-09-13T15:48:58.306Z,98969.80
2022-09-13T15:50:00.614Z,98963.41
2022-09-13T15:51:03.060Z,98963.91
2022-09-13T15:52:05.527Z,98961.50
2022-09-13T15:53:08.076Z,98957.23
2022-09-13T15:54:10.523Z,98950.48
2022-09-13T15:55:13.075Z,98953.19
2022-09-13T15:56:15.584Z,98947.42
2022-09-13T15:57:18.058Z,98945.12
2022-09-13T15:58:22.143Z,98947.94
2022-09-13T15:59:24.462Z,98945.97
2022-09-13T16:00:28.647Z,98950.56
2022-09-13T16:01:31.004Z,98949.36
2022-09-13T16:02:35.044Z,98949.95
2022-09-13T16:03:38.995Z,98955.00
2022-09-13T16:04:41.426Z,98957.48
2022-09-13T16:05:43.939Z,98951.33
2022-09-13T16:06:47.992Z,98958.08
2022-09-13T16:07:52.983Z,98961.77
2022-09-13T16:08:55.234Z,98960.21
2022-09-13T16:09:59.341Z,98959.37
2022-09-13T16:11:01.715Z,98959.63
2022-09-13T16:12:09.755Z,98961.92
2022-09-13T16:13:12.007Z,98959.78
2022-09-13T16:14:16.078Z,98957.88
2022-09-13T16:15:18.455Z,98958.92
2022-09-13T16:16:22.599Z,98956.36
2022-09-13T16:17:26.465Z,98962.05
2022-09-13T16:18:28.822Z,98957.20
2022-09-13T16:19:33.980Z,98958.73
2022-09-13T16:20:37.846Z,98960.45
2022-09-13T16:21:40.292Z,98960.97
2022-09-13T16:22:44.637Z,98954.56
2022-09-13T16:23:46.642Z,98950.47
2022-09-13T16:24:50.805Z,98948.16
2022-09-13T16:25:54.719Z,98950.02
2022-09-13T16:26:58.709Z,98945.91
2022-09-13T16:28:00.985Z,98951.19
2022-09-13T16:29:05.070Z,98953.92
2022-09-13T16:30:07.402Z,98959.63
2022-09-13T16:31:09.947Z,98960.80
2022-09-13T16:32:13.972Z,98959.84
2022-09-13T16:33:16.284Z,98956.20
2022-09-13T16:34:18.832Z,98954.31
2022-09-13T16:35:22.907Z,98955.14
2022-09-13T16:36:26.836Z,98949.28
2022-09-13T16:37:30.811Z,98955.30
2022-09-13T16:38:33.142Z,98952.16
2022-09-13T16:39:35.603Z,98954.82
2022-09-13T16:40:39.678Z,98957.36
2022-09-13T16:41:43.606Z,98954.36
2022-09-13T16:42:45.992Z,98955.98
2022-09-13T16:43:48.539Z,98951.89
2022-09-13T16:44:52.551Z,98951.48
2022-09-13T16:45:55.933Z,98948.13
2022-09-13T16:46:58.447Z,98948.22
2022-09-13T16:48:00.865Z,98946.83
2022-09-13T16:49:03.373Z,98954.59
2022-09-13T16:50:05.858Z,98952.88
2022-09-13T16:51:08.294Z,98952.77
2022-09-13T16:52:10.763Z,98952.45
2022-09-13T16:53:14.856Z,98953.27
2022-09-13T16:54:17.286Z,98949.10
2022-09-13T16:55:21.410Z,98953.62
2022-09-13T16:56:25.336Z,98949.09
2022-09-13T16:57:29.362Z,98950.80
2022-09-13T16:58:31.732Z,98952.25
2022-09-13T16:59:35.960Z,98951.55
2022-09-13T17:00:39.889Z,98954.55
2022-09-13T17:01:42.397Z,98957.28
2022-09-13T17:02:46.497Z,98958.03
2022-09-13T17:03:54.012Z,98957.18
2022-09-13T17:04:52.673Z,98955.02
2022-09-13T17:05:55.178Z,98955.91
2022-09-13T17:06:57.656Z,98954.61
2022-09-13T17:08:01.754Z,98951.61
2022-09-13T17:17:34.036Z,98945.02
2022-09-13T17:18:38.042Z,98946.91
2022-09-13T17:19:42.068Z,98947.33
2022-09-13T17:29:13.156Z,98950.85
2022-09-13T17:30:15.734Z,98949.50
2022-09-13T17:31:20.944Z,98949.34
2022-09-13T17:32:23.128Z,98945.95
2022-09-13T17:33:27.231Z,98946.30
2022-09-13T17:42:59.884Z,98947.36
2022-09-13T17:44:02.277Z,98949.16
2022-09-13T17:53:37.473Z,98936.23
2022-09-13T18:03:10.479Z,98912.39
2022-09-13T18:12:46.607Z,98910.28
2022-09-13T18:22:21.050Z,98917.69
2022-09-13T18:31:55.517Z,98938.64
2022-09-13T18:41:28.468Z,98949.16
2022-09-13T18:51:04.698Z,98954.20
2022-09-13T19:00:39.311Z,98933.16
2022-09-13T19:10:16.059Z,98921.69
2022-09-13T19:19:48.030Z,98929.33
2022-09-13T19:29:20.687Z,98947.08
2022-09-13T19:38:55.382Z,98952.02
2022-09-13T19:48:38.982Z,98946.45
2022-09-13T19:58:04.817Z,98940.98
2022-09-13T20:07:39.541Z,98946.45
2022-09-13T20:17:14.121Z,98949.63
2022-09-13T20:26:50.599Z,98953.83
2022-09-13T20:36:25.114Z,98938.23
2022-09-13T20:45:58.086Z,98917.76
2022-09-13T20:55:36.119Z,98912.53
2022-09-13T21:05:07.228Z,98900.17
2022-09-13T21:14:43.480Z,98903.66
2022-09-13T21:24:17.905Z,98906.34
2022-09-13T21:33:52.650Z,98873.92
2022-09-13T21:43:27.283Z,98840.45
2022-09-13T21:53:03.292Z,98831.27
2022-09-13T22:02:35.640Z,98808.38
2022-09-13T22:12:11.931Z,98802.66
2022-09-13T22:21:44.872Z,98811.39
2022-09-13T22:31:21.055Z,98827.59
2022-09-13T22:40:55.729Z,98799.59
2022-09-13T22:50:28.641Z,98786.16
2022-09-13T23:00:03.416Z,98781.70
2022-09-13T23:09:38.508Z,98780.44
2022-09-13T23:19:14.770Z,98817.06
2022-09-13T23:28:49.452Z,98789.57
2022-09-13T23:38:22.597Z,98783.19
2022-09-13T23:47:57.032Z,98798.88
2022-09-13T23:57:33.124Z,98770.95
